createdAt,value
2018-08-14T00:00:44.379Z,4.11
2018-08-14T00:01:44.878Z,4.05
2018-08-14T00:02:45.321Z,4.02
2018-08-14T00:03:45.795Z,4.05
2018-08-14T00:04:46.271Z,4.02
2018-08-14T00:05:46.750Z,4.02
2018-08-14T00:06:47.218Z,3.95
2018-08-14T00:07:47.695Z,3.88
2018-08-14T00:08:48.170Z,3.86
2018-08-14T00:09:48.643Z,3.84
2018-08-14T00:10:49.120Z,3.86
2018-08-14T00:11:49.593Z,3.88
2018-08-14T00:12:50.068Z,3.88
2018-08-14T00:13:50.542Z,3.89
2018-08-14T00:14:51.015Z,3.90
2018-08-14T00:15:51.491Z,3.90
2018-08-14T00:16:51.964Z,3.90
2018-08-14T00:17:52.440Z,3.90
2018-08-14T00:18:52.912Z,3.88
2018-08-14T00:19:53.389Z,3.89
2018-08-14T00:20:53.861Z,3.88
2018-08-14T00:21:54.333Z,3.84
2018-08-14T00:22:54.808Z,3.80
2018-08-14T00:23:55.280Z,3.76
2018-08-14T00:24:55.756Z,3.49
2018-08-14T00:25:56.239Z,3.16
2018-08-14T00:26:56.699Z,3.06
2018-08-14T00:27:57.172Z,3.08
2018-08-14T00:28:57.645Z,3.16
2018-08-14T00:29:58.117Z,3.11
2018-08-14T00:30:58.588Z,2.96
2018-08-14T00:31:59.062Z,2.87
2018-08-14T00:32:59.535Z,2.84
2018-08-14T00:34:00.009Z,2.83
2018-08-14T00:35:00.478Z,2.83
2018-08-14T00:36:01.002Z,2.86
2018-08-14T00:37:01.423Z,2.98
2018-08-14T00:38:01.894Z,2.93
2018-08-14T00:39:02.362Z,2.89
2018-08-14T00:40:02.834Z,2.90
2018-08-14T00:41:03.305Z,2.90
2018-08-14T00:42:03.778Z,2.90
2018-08-14T00:43:04.246Z,2.84
2018-08-14T00:44:04.717Z,2.71
2018-08-14T00:45:05.187Z,2.70
2018-08-14T00:46:05.661Z,2.68
2018-08-14T00:47:06.130Z,2.70
2018-08-14T00:48:06.599Z,2.78
2018-08-14T00:49:07.074Z,2.81
2018-08-14T00:50:07.542Z,2.76
2018-08-14T00:51:08.015Z,2.72
2018-08-14T00:52:08.485Z,2.74
2018-08-14T00:53:08.956Z,2.72
2018-08-14T00:54:09.425Z,2.74
2018-08-14T00:55:09.902Z,2.74
2018-08-14T00:56:10.367Z,2.77
2018-08-14T00:57:10.840Z,2.78
2018-08-14T00:58:11.312Z,2.78
2018-08-14T00:59:11.784Z,2.78
2018-08-14T01:00:12.257Z,2.81
2018-08-14T01:01:12.728Z,2.75
2018-08-14T01:02:13.203Z,2.74
2018-08-14T01:03:13.672Z,2.70
2018-08-14T01:04:14.144Z,2.66
2018-08-14T01:05:14.616Z,2.62
2018-08-14T01:06:15.090Z,2.67
2018-08-14T01:07:15.562Z,2.71
2018-08-14T01:08:16.035Z,2.70
2018-08-14T01:09:16.511Z,2.61
2018-08-14T01:10:16.983Z,2.58
2018-08-14T01:11:17.457Z,2.54
2018-08-14T01:12:17.929Z,2.54
2018-08-14T01:13:18.403Z,2.60
2018-08-14T01:14:18.878Z,2.73
2018-08-14T01:15:19.353Z,2.85
2018-08-14T01:16:19.828Z,2.92
2018-08-14T01:17:20.300Z,2.94
2018-08-14T01:18:20.776Z,2.94
2018-08-14T01:19:21.250Z,2.92
2018-08-14T01:20:21.722Z,2.89
2018-08-14T01:21:22.198Z,2.85
2018-08-14T01:22:22.671Z,2.82
2018-08-14T01:23:23.150Z,2.82
2018-08-14T01:24:23.620Z,2.78
2018-08-14T01:25:24.096Z,2.76
2018-08-14T01:26:24.569Z,2.75
2018-08-14T01:27:25.041Z,2.74
2018-08-14T01:28:25.515Z,2.69
2018-08-14T01:29:25.990Z,2.68
2018-08-14T01:30:26.464Z,2.65
2018-08-14T01:31:26.937Z,2.61
2018-08-14T01:32:27.409Z,2.67
2018-08-14T01:33:27.883Z,2.78
2018-08-14T01:34:28.358Z,2.94
2018-08-14T01:35:28.831Z,3.06
2018-08-14T01:36:29.300Z,3.10
2018-08-14T01:37:29.773Z,3.12
2018-08-14T01:38:30.248Z,3.10
2018-08-14T01:39:30.717Z,3.13
2018-08-14T01:40:31.191Z,3.12
2018-08-14T01:41:31.662Z,3.10
2018-08-14T01:42:32.133Z,3.12
2018-08-14T01:43:32.606Z,3.15
2018-08-14T01:44:33.076Z,3.16
2018-08-14T01:45:33.548Z,3.15
2018-08-14T01:46:34.020Z,3.16
2018-08-14T01:47:34.489Z,3.16
2018-08-14T01:48:34.960Z,3.16
2018-08-14T01:49:35.431Z,3.17
2018-08-14T01:50:35.903Z,3.17
2018-08-14T01:51:36.373Z,3.18
2018-08-14T01:52:36.846Z,3.18
2018-08-14T01:53:37.314Z,3.18
2018-08-14T01:54:37.786Z,3.16
2018-08-14T01:55:38.256Z,3.14
2018-08-14T01:56:38.725Z,3.13
2018-08-14T01:57:39.198Z,3.14
2018-08-14T01:58:39.671Z,3.14
2018-08-14T01:59:40.139Z,3.12
2018-08-14T02:00:40.610Z,3.11
2018-08-14T02:01:41.080Z,3.13
2018-08-14T02:02:41.552Z,3.16
2018-08-14T02:03:42.023Z,3.15
2018-08-14T02:04:42.493Z,3.17
2018-08-14T02:05:42.965Z,3.19
2018-08-14T02:06:43.438Z,3.18
2018-08-14T02:07:43.914Z,3.17
2018-08-14T02:08:44.382Z,3.18
2018-08-14T02:09:44.855Z,3.18
2018-08-14T02:10:45.325Z,3.20
2018-08-14T02:11:45.851Z,3.18
2018-08-14T02:12:46.271Z,3.20
2018-08-14T02:13:46.764Z,3.20
2018-08-14T02:14:47.218Z,3.20
2018-08-14T02:15:47.688Z,3.22
2018-08-14T02:16:48.164Z,3.21
2018-08-14T02:17:48.641Z,3.20
2018-08-14T02:18:49.110Z,3.22
2018-08-14T02:19:49.579Z,3.21
2018-08-14T02:20:50.057Z,3.20
2018-08-14T02:21:50.530Z,3.17
2018-08-14T02:22:51.002Z,3.20
2018-08-14T02:23:51.478Z,3.21
2018-08-14T02:24:51.954Z,3.24
2018-08-14T02:25:52.427Z,3.26
2018-08-14T02:26:52.899Z,3.27
2018-08-14T02:27:53.375Z,3.28
2018-08-14T02:28:53.846Z,3.28
2018-08-14T02:29:54.326Z,3.20
2018-08-14T02:30:54.797Z,3.16
2018-08-14T02:31:55.272Z,3.12
2018-08-14T02:32:55.746Z,3.16
2018-08-14T02:33:56.221Z,3.15
2018-08-14T02:34:56.695Z,3.16
2018-08-14T02:35:57.169Z,3.18
2018-08-14T02:36:57.644Z,3.20
2018-08-14T02:37:58.118Z,3.12
2018-08-14T02:38:58.591Z,3.10
2018-08-14T02:39:59.065Z,3.12
2018-08-14T02:40:59.539Z,3.11
2018-08-14T02:42:00.018Z,3.14
2018-08-14T02:43:00.489Z,3.16
2018-08-14T02:44:00.957Z,3.17
2018-08-14T02:45:01.431Z,3.19
2018-08-14T02:46:01.904Z,3.18
2018-08-14T02:47:02.379Z,3.18
2018-08-14T02:48:02.848Z,3.20
2018-08-14T02:49:03.324Z,3.20
2018-08-14T02:50:03.793Z,3.22
2018-08-14T02:51:04.268Z,3.22
2018-08-14T02:52:04.736Z,3.22
2018-08-14T02:53:05.207Z,3.16
2018-08-14T02:54:05.680Z,3.13
2018-08-14T02:55:06.158Z,3.13
2018-08-14T02:56:06.622Z,3.15
2018-08-14T02:57:07.094Z,3.17
2018-08-14T02:58:07.566Z,3.18
2018-08-14T02:59:08.036Z,3.18
2018-08-14T03:00:08.505Z,3.16
2018-08-14T03:01:08.977Z,3.14
2018-08-14T03:02:09.448Z,3.16
2018-08-14T03:03:09.917Z,3.16
2018-08-14T03:04:10.389Z,3.18
2018-08-14T03:05:10.860Z,3.19
2018-08-14T03:06:11.332Z,3.20
2018-08-14T03:07:11.801Z,3.21
2018-08-14T03:08:12.269Z,3.22
2018-08-14T03:09:12.741Z,3.22
2018-08-14T03:10:13.214Z,3.23
2018-08-14T03:11:13.684Z,3.22
2018-08-14T03:12:14.154Z,3.23
2018-08-14T03:13:14.626Z,3.21
2018-08-14T03:14:15.097Z,3.20
2018-08-14T03:15:15.571Z,3.20
2018-08-14T03:16:16.043Z,3.18
2018-08-14T03:17:16.512Z,3.16
2018-08-14T03:18:16.984Z,3.12
2018-08-14T03:19:17.461Z,3.10
2018-08-14T03:20:17.926Z,3.12
2018-08-14T03:21:18.401Z,3.14
2018-08-14T03:22:18.874Z,3.16
2018-08-14T03:23:19.344Z,3.18
2018-08-14T03:24:19.819Z,3.19
2018-08-14T03:25:20.293Z,3.18
2018-08-14T03:26:20.762Z,3.18
2018-08-14T03:27:21.236Z,3.20
2018-08-14T03:28:21.711Z,3.22
2018-08-14T03:29:22.181Z,3.25
2018-08-14T03:30:22.657Z,3.26
2018-08-14T03:31:23.133Z,3.27
2018-08-14T03:32:23.629Z,3.29
2018-08-14T03:33:24.077Z,3.32
2018-08-14T03:34:24.550Z,3.32
2018-08-14T03:35:25.026Z,3.27
2018-08-14T03:36:25.499Z,3.22
2018-08-14T03:37:25.976Z,3.20
2018-08-14T03:38:26.448Z,3.23
2018-08-14T03:39:26.922Z,3.20
2018-08-14T03:40:27.396Z,3.16
2018-08-14T03:41:27.872Z,3.12
2018-08-14T03:42:28.394Z,3.12
2018-08-14T03:43:28.819Z,3.09
2018-08-14T03:44:29.292Z,3.08
2018-08-14T03:45:29.764Z,3.05
2018-08-14T03:46:30.240Z,3.02
2018-08-14T03:47:30.715Z,3.01
2018-08-14T03:48:31.186Z,3.00
2018-08-14T03:49:31.663Z,3.02
2018-08-14T03:50:32.134Z,3.05
2018-08-14T03:51:32.608Z,3.08
2018-08-14T03:52:33.079Z,3.08
2018-08-14T03:53:33.553Z,3.10
2018-08-14T03:54:34.026Z,3.06
2018-08-14T03:55:34.498Z,3.03
2018-08-14T03:56:34.969Z,3.04
2018-08-14T03:57:35.440Z,3.04
2018-08-14T03:58:35.913Z,3.06
2018-08-14T03:59:36.386Z,2.94
2018-08-14T04:00:36.857Z,2.88
2018-08-14T04:01:37.327Z,2.84
2018-08-14T04:02:37.800Z,2.78
2018-08-14T04:03:38.271Z,2.80
2018-08-14T04:04:38.744Z,2.82
2018-08-14T04:05:39.213Z,2.84
2018-08-14T04:06:39.683Z,2.79
2018-08-14T04:07:40.154Z,2.80
2018-08-14T04:08:40.627Z,2.80
2018-08-14T04:09:41.094Z,2.78
2018-08-14T04:10:41.567Z,2.78
2018-08-14T04:11:42.037Z,2.77
2018-08-14T04:12:42.510Z,2.82
2018-08-14T04:13:42.981Z,2.79
2018-08-14T04:14:43.448Z,2.80
2018-08-14T04:15:43.921Z,2.82
2018-08-14T04:16:44.390Z,2.80
2018-08-14T04:17:44.861Z,2.82
2018-08-14T04:18:45.334Z,2.85
2018-08-14T04:19:45.808Z,2.85
2018-08-14T04:20:46.274Z,2.86
2018-08-14T04:21:46.746Z,2.88
2018-08-14T04:22:47.221Z,2.88
2018-08-14T04:23:47.688Z,2.87
2018-08-14T04:24:48.159Z,2.85
2018-08-14T04:25:48.632Z,2.83
2018-08-14T04:26:49.127Z,2.81
2018-08-14T04:27:49.575Z,2.80
2018-08-14T04:28:50.048Z,2.84
2018-08-14T04:29:50.534Z,2.86
2018-08-14T04:30:50.992Z,2.88
2018-08-14T04:31:51.465Z,2.88
2018-08-14T04:32:51.937Z,2.91
2018-08-14T04:33:52.411Z,2.95
2018-08-14T04:34:52.883Z,2.98
2018-08-14T04:35:53.359Z,2.98
2018-08-14T04:36:53.832Z,3.00
2018-08-14T04:37:54.304Z,3.00
2018-08-14T04:38:54.778Z,3.00
2018-08-14T04:39:55.250Z,3.02
2018-08-14T04:40:55.726Z,3.04
2018-08-14T04:41:56.196Z,3.04
2018-08-14T04:42:56.671Z,3.04
2018-08-14T04:43:57.147Z,3.08
2018-08-14T04:44:57.620Z,3.08
2018-08-14T04:45:58.139Z,3.05
2018-08-14T04:46:58.570Z,3.06
2018-08-14T04:47:59.044Z,3.06
2018-08-14T04:48:59.516Z,3.06
2018-08-14T04:49:59.992Z,3.06
2018-08-14T04:51:00.467Z,3.05
2018-08-14T04:52:00.942Z,3.08
2018-08-14T04:53:01.415Z,3.08
2018-08-14T04:54:01.970Z,3.10
2018-08-14T04:55:02.363Z,3.10
2018-08-14T04:56:02.837Z,3.10
2018-08-14T04:57:03.310Z,3.12
2018-08-14T04:58:03.784Z,3.13
2018-08-14T04:59:04.264Z,3.13
2018-08-14T05:00:04.732Z,3.15
2018-08-14T05:01:05.204Z,3.16
2018-08-14T05:02:05.677Z,3.16
2018-08-14T05:03:06.149Z,3.16
2018-08-14T05:04:06.624Z,3.16
2018-08-14T05:05:07.095Z,3.16
2018-08-14T05:06:07.573Z,3.12
2018-08-14T05:07:08.039Z,3.12
2018-08-14T05:08:08.561Z,3.12
2018-08-14T05:09:08.981Z,3.14
2018-08-14T05:10:09.457Z,3.16
2018-08-14T05:11:09.925Z,3.16
2018-08-14T05:12:10.396Z,3.17
2018-08-14T05:13:10.869Z,3.20
2018-08-14T05:14:11.337Z,3.20
2018-08-14T05:15:11.808Z,3.20
2018-08-14T05:16:12.281Z,3.19
2018-08-14T05:17:12.752Z,3.19
2018-08-14T05:18:13.219Z,3.20
2018-08-14T05:19:13.690Z,3.20
2018-08-14T05:20:14.164Z,3.18
2018-08-14T05:21:14.633Z,3.17
2018-08-14T05:22:15.103Z,3.18
2018-08-14T05:23:15.574Z,3.17
2018-08-14T05:24:16.048Z,3.16
2018-08-14T05:25:16.517Z,3.16
2018-08-14T05:26:16.986Z,3.16
2018-08-14T05:27:17.456Z,3.18
2018-08-14T05:28:17.927Z,3.16
2018-08-14T05:29:18.397Z,3.19
2018-08-14T05:30:18.869Z,3.20
2018-08-14T05:31:19.338Z,3.22
2018-08-14T05:32:19.812Z,3.22
2018-08-14T05:33:20.323Z,3.25
2018-08-14T05:34:20.751Z,3.25
2018-08-14T05:35:21.224Z,3.25
2018-08-14T05:36:21.697Z,3.26
2018-08-14T05:37:22.169Z,3.26
2018-08-14T05:38:22.639Z,3.24
2018-08-14T05:39:23.112Z,3.25
2018-08-14T05:40:23.582Z,3.26
2018-08-14T05:41:24.054Z,3.28
2018-08-14T05:42:24.527Z,3.34
2018-08-14T05:43:25.057Z,3.35
2018-08-14T05:44:25.473Z,3.35
2018-08-14T05:45:25.945Z,3.35
2018-08-14T05:46:26.418Z,3.32
2018-08-14T05:47:26.891Z,3.33
2018-08-14T05:48:27.366Z,3.34
2018-08-14T05:49:27.837Z,3.35
2018-08-14T05:50:28.310Z,3.38
2018-08-14T05:51:28.785Z,3.41
2018-08-14T05:52:29.259Z,3.40
2018-08-14T05:53:29.731Z,3.40
2018-08-14T05:54:30.209Z,3.42
2018-08-14T05:55:30.681Z,3.40
2018-08-14T05:56:31.156Z,3.40
2018-08-14T05:57:31.629Z,3.39
2018-08-14T05:58:32.103Z,3.38
2018-08-14T05:59:32.578Z,3.38
2018-08-14T06:00:33.053Z,3.36
2018-08-14T06:01:33.526Z,3.36
2018-08-14T06:02:34.001Z,3.36
2018-08-14T06:03:34.475Z,3.39
2018-08-14T06:04:34.948Z,3.46
2018-08-14T06:05:35.421Z,3.46
2018-08-14T06:06:35.895Z,3.44
2018-08-14T06:07:36.369Z,3.44
2018-08-14T06:08:36.847Z,3.43
2018-08-14T06:09:37.316Z,3.36
2018-08-14T06:10:37.790Z,3.33
2018-08-14T06:11:38.264Z,3.34
2018-08-14T06:12:38.738Z,3.33
2018-08-14T06:13:39.209Z,3.32
2018-08-14T06:14:39.683Z,3.38
2018-08-14T06:15:40.162Z,3.42
2018-08-14T06:16:40.627Z,3.44
2018-08-14T06:17:41.114Z,3.49
2018-08-14T06:18:41.574Z,3.55
2018-08-14T06:19:42.045Z,3.56
2018-08-14T06:20:42.516Z,3.54
2018-08-14T06:21:42.987Z,3.52
2018-08-14T06:22:43.508Z,3.52
2018-08-14T06:23:43.930Z,3.50
2018-08-14T06:24:44.401Z,3.53
2018-08-14T06:25:44.871Z,3.54
2018-08-14T06:26:45.340Z,3.59
2018-08-14T06:27:45.814Z,3.58
2018-08-14T06:28:46.285Z,3.58
2018-08-14T06:29:46.755Z,3.54
2018-08-14T06:30:47.226Z,3.47
2018-08-14T06:31:47.710Z,3.43
2018-08-14T06:32:48.168Z,3.46
2018-08-14T06:33:48.643Z,3.45
2018-08-14T06:34:49.109Z,3.44
2018-08-14T06:35:49.578Z,3.42
2018-08-14T06:36:50.049Z,3.38
2018-08-14T06:37:50.523Z,3.40
2018-08-14T06:38:50.995Z,3.47
2018-08-14T06:39:51.461Z,3.57
2018-08-14T06:40:51.931Z,3.69
2018-08-14T06:41:52.405Z,3.72
2018-08-14T06:42:52.875Z,3.74
2018-08-14T06:43:53.345Z,3.77
2018-08-14T06:44:53.818Z,3.76
2018-08-14T06:45:54.287Z,3.75
2018-08-14T06:46:54.759Z,3.75
2018-08-14T06:47:55.231Z,3.78
2018-08-14T06:48:55.751Z,3.78
2018-08-14T06:49:56.174Z,3.65
2018-08-14T06:50:56.646Z,3.47
2018-08-14T06:51:57.119Z,3.40
2018-08-14T06:52:57.593Z,3.30
2018-08-14T06:53:58.065Z,3.33
2018-08-14T06:54:58.538Z,3.38
2018-08-14T06:55:59.049Z,3.44
2018-08-14T06:56:59.487Z,3.46
2018-08-14T06:57:59.957Z,3.37
2018-08-14T06:59:00.431Z,3.32
2018-08-14T07:00:00.905Z,3.36
2018-08-14T07:01:01.379Z,3.40
2018-08-14T07:02:01.852Z,3.40
2018-08-14T07:03:02.325Z,3.32
2018-08-14T07:04:02.804Z,3.32
2018-08-14T07:05:03.275Z,3.38
2018-08-14T07:06:03.748Z,3.39
2018-08-14T07:07:04.222Z,3.52
2018-08-14T07:08:04.698Z,3.62
2018-08-14T07:09:05.214Z,3.63
2018-08-14T07:10:05.650Z,3.62
2018-08-14T07:11:06.122Z,3.60
2018-08-14T07:12:06.596Z,3.56
2018-08-14T07:13:07.070Z,3.51
2018-08-14T07:14:07.546Z,3.51
2018-08-14T07:15:08.017Z,3.36
2018-08-14T07:16:08.491Z,3.31
2018-08-14T07:17:08.966Z,3.33
2018-08-14T07:18:09.440Z,3.30
2018-08-14T07:19:09.917Z,3.32
2018-08-14T07:20:10.392Z,3.34
2018-08-14T07:21:10.860Z,3.26
2018-08-14T07:22:11.332Z,3.12
2018-08-14T07:23:11.808Z,3.10
2018-08-14T07:24:12.279Z,3.22
2018-08-14T07:25:12.750Z,3.24
2018-08-14T07:26:13.223Z,3.11
2018-08-14T07:27:13.696Z,3.11
2018-08-14T07:28:14.198Z,3.00
2018-08-14T07:29:14.641Z,2.84
2018-08-14T07:30:15.112Z,2.81
2018-08-14T07:31:15.582Z,2.90
2018-08-14T07:32:16.056Z,2.86
2018-08-14T07:33:16.527Z,2.76
2018-08-14T07:34:16.997Z,2.84
2018-08-14T07:35:17.467Z,2.92
2018-08-14T07:36:17.940Z,3.00
2018-08-14T07:37:18.411Z,3.00
2018-08-14T07:38:18.881Z,2.92
2018-08-14T07:39:19.354Z,2.82
2018-08-14T07:40:19.823Z,2.86
2018-08-14T07:41:20.301Z,2.94
2018-08-14T07:42:20.766Z,2.95
2018-08-14T07:43:21.234Z,2.97
2018-08-14T07:44:21.705Z,3.06
2018-08-14T07:45:22.176Z,3.06
2018-08-14T07:46:22.646Z,3.00
2018-08-14T07:47:23.116Z,3.08
2018-08-14T07:48:23.588Z,3.12
2018-08-14T07:49:24.060Z,2.96
2018-08-14T07:50:24.531Z,2.96
2018-08-14T07:51:25.000Z,3.04
2018-08-14T07:52:25.472Z,3.10
2018-08-14T07:53:25.949Z,3.16
2018-08-14T07:54:26.415Z,3.24
2018-08-14T07:55:26.888Z,3.16
2018-08-14T07:56:27.360Z,3.26
2018-08-14T07:57:27.829Z,3.26
2018-08-14T07:58:28.312Z,3.23
2018-08-14T07:59:28.772Z,3.21
2018-08-14T08:00:29.245Z,3.16
2018-08-14T08:01:29.719Z,3.11
2018-08-14T08:02:30.190Z,3.18
2018-08-14T08:03:30.663Z,3.25
2018-08-14T08:04:31.135Z,3.36
2018-08-14T08:05:31.615Z,3.45
2018-08-14T08:06:32.116Z,3.41
2018-08-14T08:07:32.554Z,3.24
2018-08-14T08:08:33.029Z,3.35
2018-08-14T08:09:33.503Z,3.36
2018-08-14T08:10:33.986Z,3.43
2018-08-14T08:11:34.449Z,3.40
2018-08-14T08:12:34.927Z,3.16
2018-08-14T08:13:35.399Z,3.04
2018-08-14T08:14:35.873Z,3.18
2018-08-14T08:15:36.347Z,3.27
2018-08-14T08:16:36.822Z,3.36
2018-08-14T08:17:37.297Z,3.53
2018-08-14T08:18:37.771Z,3.60
2018-08-14T08:19:38.245Z,3.59
2018-08-14T08:20:38.720Z,3.62
2018-08-14T08:21:39.195Z,3.49
2018-08-14T08:22:39.669Z,3.27
2018-08-14T08:23:40.145Z,3.21
2018-08-14T08:24:40.649Z,3.31
2018-08-14T08:25:41.094Z,3.41
2018-08-14T08:26:41.567Z,3.37
2018-08-14T08:27:42.045Z,3.26
2018-08-14T08:28:42.513Z,3.22
2018-08-14T08:29:42.990Z,3.40
2018-08-14T08:30:43.460Z,3.42
2018-08-14T08:31:43.935Z,3.56
2018-08-14T08:32:44.408Z,3.62
2018-08-14T08:33:44.883Z,3.53
2018-08-14T08:34:45.373Z,3.50
2018-08-14T08:35:45.827Z,3.43
2018-08-14T08:36:46.300Z,3.66
2018-08-14T08:37:46.773Z,3.70
2018-08-14T08:38:47.248Z,3.54
2018-08-14T08:39:47.717Z,3.46
2018-08-14T08:40:48.198Z,3.63
2018-08-14T08:41:48.726Z,3.70
2018-08-14T08:42:49.133Z,3.80
2018-08-14T08:43:49.603Z,3.70
2018-08-14T08:44:50.076Z,3.50
2018-08-14T08:45:50.548Z,3.30
2018-08-14T08:46:51.019Z,3.23
2018-08-14T08:47:51.494Z,3.44
2018-08-14T08:48:51.963Z,3.64
2018-08-14T08:49:52.432Z,3.60
2018-08-14T08:50:52.903Z,3.51
2018-08-14T08:51:53.377Z,3.44
2018-08-14T08:52:53.846Z,3.50
2018-08-14T08:53:54.317Z,3.56
2018-08-14T08:54:54.785Z,3.46
2018-08-14T08:55:55.262Z,3.57
2018-08-14T08:56:55.729Z,3.50
2018-08-14T08:57:56.205Z,3.44
2018-08-14T08:58:56.669Z,3.40
2018-08-14T08:59:57.140Z,3.51
2018-08-14T09:00:57.613Z,3.62
2018-08-14T09:01:58.083Z,3.64
2018-08-14T09:02:58.556Z,3.80
2018-08-14T09:03:59.076Z,3.82
2018-08-14T09:04:59.513Z,3.92
2018-08-14T09:05:59.974Z,3.86
2018-08-14T09:07:00.440Z,3.83
2018-08-14T09:08:00.914Z,3.78
2018-08-14T09:09:01.388Z,3.88
2018-08-14T09:10:01.859Z,3.80
2018-08-14T09:11:02.329Z,3.70
2018-08-14T09:12:02.804Z,3.77
2018-08-14T09:13:03.274Z,3.86
2018-08-14T09:14:03.752Z,3.90
2018-08-14T09:15:04.221Z,3.92
2018-08-14T09:16:04.694Z,3.80
2018-08-14T09:17:05.168Z,3.67
2018-08-14T09:18:05.646Z,3.52
2018-08-14T09:19:06.115Z,3.58
2018-08-14T09:20:06.588Z,3.72
2018-08-14T09:21:07.063Z,3.84
2018-08-14T09:22:07.536Z,3.74
2018-08-14T09:23:08.010Z,3.64
2018-08-14T09:24:08.485Z,3.41
2018-08-14T09:25:08.962Z,3.53
2018-08-14T09:26:09.435Z,3.44
2018-08-14T09:27:09.908Z,3.60
2018-08-14T09:28:10.386Z,3.80
2018-08-14T09:29:10.859Z,3.77
2018-08-14T09:30:11.352Z,3.60
2018-08-14T09:31:11.808Z,3.67
2018-08-14T09:32:12.284Z,3.52
2018-08-14T09:33:12.758Z,3.44
2018-08-14T09:34:13.233Z,3.67
2018-08-14T09:35:13.706Z,3.70
2018-08-14T09:36:14.179Z,3.57
2018-08-14T09:37:14.656Z,3.52
2018-08-14T09:38:15.130Z,3.36
2018-08-14T09:39:15.604Z,3.48
2018-08-14T09:40:16.076Z,3.36
2018-08-14T09:41:16.551Z,3.20
2018-08-14T09:42:17.026Z,3.20
2018-08-14T09:43:17.498Z,3.14
2018-08-14T09:44:17.971Z,3.06
2018-08-14T09:45:18.445Z,3.02
2018-08-14T09:46:18.921Z,3.04
2018-08-14T09:47:19.391Z,3.00
2018-08-14T09:48:19.863Z,3.10
2018-08-14T09:49:20.336Z,3.16
2018-08-14T09:50:20.807Z,3.24
2018-08-14T09:51:21.282Z,3.36
2018-08-14T09:52:21.753Z,3.50
2018-08-14T09:53:22.224Z,3.67
2018-08-14T09:54:22.708Z,3.86
2018-08-14T09:55:23.170Z,3.79
2018-08-14T09:56:23.639Z,3.60
2018-08-14T09:57:24.114Z,3.44
2018-08-14T09:58:24.581Z,3.30
2018-08-14T09:59:25.052Z,3.40
2018-08-14T10:00:25.525Z,3.54
2018-08-14T10:01:25.996Z,3.54
2018-08-14T10:02:26.470Z,3.45
2018-08-14T10:03:26.940Z,3.56
2018-08-14T10:04:27.410Z,3.45
2018-08-14T10:05:27.881Z,3.26
2018-08-14T10:06:28.351Z,3.24
2018-08-14T10:07:28.820Z,3.25
2018-08-14T10:08:29.293Z,3.26
2018-08-14T10:09:29.765Z,3.26
2018-08-14T10:10:30.238Z,3.26
2018-08-14T10:11:30.707Z,3.31
2018-08-14T10:12:31.178Z,3.26
2018-08-14T10:13:31.651Z,3.28
2018-08-14T10:14:32.121Z,3.41
2018-08-14T10:15:32.595Z,3.62
2018-08-14T10:16:33.066Z,3.63
2018-08-14T10:17:33.538Z,3.58
2018-08-14T10:18:34.010Z,3.48
2018-08-14T10:19:34.483Z,3.45
2018-08-14T10:20:34.953Z,3.65
2018-08-14T10:21:35.430Z,4.29
2018-08-14T10:22:35.900Z,4.46
2018-08-14T10:23:36.372Z,4.60
2018-08-14T10:24:36.845Z,4.67
2018-08-14T10:25:37.318Z,4.43
2018-08-14T10:26:37.802Z,4.72
2018-08-14T10:27:38.267Z,4.18
2018-08-14T10:28:38.792Z,3.90
2018-08-14T10:29:39.213Z,3.76
2018-08-14T10:30:39.693Z,3.81
2018-08-14T10:31:40.164Z,3.98
2018-08-14T10:32:40.638Z,4.24
2018-08-14T10:33:41.112Z,4.26
2018-08-14T10:34:41.585Z,4.16
2018-08-14T10:35:42.062Z,4.19
2018-08-14T10:36:42.537Z,4.04
2018-08-14T10:37:43.010Z,3.96
2018-08-14T10:38:43.487Z,3.94
2018-08-14T10:39:44.014Z,3.92
2018-08-14T10:40:44.437Z,3.78
2018-08-14T10:41:44.912Z,3.67
2018-08-14T10:42:45.394Z,3.64
2018-08-14T10:43:45.861Z,3.72
2018-08-14T10:44:46.335Z,3.64
2018-08-14T10:45:46.811Z,3.69
2018-08-14T10:46:47.286Z,4.02
2018-08-14T10:47:47.763Z,4.25
2018-08-14T10:48:48.233Z,4.42
2018-08-14T10:49:48.711Z,4.39
2018-08-14T10:50:49.181Z,4.32
2018-08-14T10:51:49.656Z,4.18
2018-08-14T10:52:50.134Z,4.28
2018-08-14T10:53:50.603Z,4.22
2018-08-14T10:54:51.078Z,4.20
2018-08-14T10:55:51.549Z,4.12
2018-08-14T10:56:52.024Z,4.00
2018-08-14T10:57:52.499Z,4.00
2018-08-14T10:58:52.970Z,4.28
2018-08-14T10:59:53.441Z,4.54
2018-08-14T11:00:53.919Z,4.52
2018-08-14T11:01:54.388Z,4.45
2018-08-14T11:02:54.859Z,4.33
2018-08-14T11:03:55.334Z,4.33
2018-08-14T11:04:55.821Z,4.51
2018-08-14T11:05:56.278Z,4.47
2018-08-14T11:06:56.748Z,4.32
2018-08-14T11:07:57.219Z,4.19
2018-08-14T11:08:57.699Z,3.98
2018-08-14T11:09:58.164Z,4.02
2018-08-14T11:10:58.686Z,4.27
2018-08-14T11:11:59.106Z,4.42
2018-08-14T11:12:59.593Z,4.30
2018-08-14T11:14:00.049Z,4.18
2018-08-14T11:15:00.521Z,4.05
2018-08-14T11:16:00.990Z,4.00
2018-08-14T11:17:01.464Z,4.10
2018-08-14T11:18:01.930Z,4.21
2018-08-14T11:19:02.406Z,4.33
2018-08-14T11:20:02.874Z,4.25
2018-08-14T11:21:03.346Z,4.14
2018-08-14T11:22:03.816Z,4.16
2018-08-14T11:23:04.287Z,4.22
2018-08-14T11:24:04.760Z,4.36
2018-08-14T11:25:05.230Z,4.42
2018-08-14T11:26:05.702Z,4.26
2018-08-14T11:27:06.175Z,4.12
2018-08-14T11:28:06.647Z,4.12
2018-08-14T11:29:07.117Z,4.00
2018-08-14T11:30:07.589Z,3.98
2018-08-14T11:31:08.061Z,3.96
2018-08-14T11:32:08.542Z,3.86
2018-08-14T11:33:09.005Z,3.94
2018-08-14T11:34:09.478Z,4.10
2018-08-14T11:35:09.951Z,4.16
2018-08-14T11:36:10.426Z,4.18
2018-08-14T11:37:10.898Z,4.08
2018-08-14T11:38:11.369Z,4.06
2018-08-14T11:39:11.846Z,3.98
2018-08-14T11:40:12.316Z,4.06
2018-08-14T11:41:12.792Z,4.08
2018-08-14T11:42:13.265Z,4.10
2018-08-14T11:43:13.738Z,4.04
2018-08-14T11:44:14.215Z,3.94
2018-08-14T11:45:14.690Z,4.00
2018-08-14T11:46:15.216Z,4.17
2018-08-14T11:47:15.638Z,4.24
2018-08-14T11:48:16.112Z,4.28
2018-08-14T11:49:16.587Z,4.30
2018-08-14T11:50:17.065Z,4.28
2018-08-14T11:51:17.539Z,4.19
2018-08-14T11:52:18.012Z,4.12
2018-08-14T11:53:18.493Z,3.91
2018-08-14T11:54:18.963Z,3.80
2018-08-14T11:55:19.438Z,3.76
2018-08-14T11:56:19.911Z,3.56
2018-08-14T11:57:20.433Z,3.51
2018-08-14T11:58:20.862Z,3.54
2018-08-14T11:59:21.339Z,3.58
2018-08-14T12:00:21.815Z,3.59
2018-08-14T12:01:22.286Z,3.60
2018-08-14T12:02:22.760Z,3.70
2018-08-14T12:03:23.234Z,3.72
2018-08-14T12:04:23.710Z,3.86
2018-08-14T12:05:24.187Z,4.04
2018-08-14T12:06:24.657Z,4.02
2018-08-14T12:07:25.133Z,3.92
2018-08-14T12:08:25.604Z,3.92
2018-08-14T12:09:26.076Z,4.00
2018-08-14T12:10:26.550Z,3.96
2018-08-14T12:11:27.026Z,4.04
2018-08-14T12:12:27.496Z,4.08
2018-08-14T12:13:27.969Z,4.08
2018-08-14T12:14:28.448Z,4.00
2018-08-14T12:15:28.916Z,3.90
2018-08-14T12:16:29.387Z,3.80
2018-08-14T12:17:29.859Z,3.79
2018-08-14T12:18:30.350Z,3.73
2018-08-14T12:19:30.804Z,3.81
2018-08-14T12:20:31.275Z,3.56
2018-08-14T12:21:31.747Z,3.53
2018-08-14T12:22:32.219Z,3.56
2018-08-14T12:23:32.691Z,3.60
2018-08-14T12:24:33.162Z,3.58
2018-08-14T12:25:33.634Z,3.50
2018-08-14T12:26:34.103Z,3.45
2018-08-14T12:27:34.577Z,3.35
2018-08-14T12:28:35.048Z,3.29
2018-08-14T12:29:35.516Z,3.07
2018-08-14T12:30:35.988Z,3.06
2018-08-14T12:31:36.459Z,3.16
2018-08-14T12:32:36.931Z,3.12
2018-08-14T12:33:37.402Z,2.92
2018-08-14T12:34:37.873Z,2.82
2018-08-14T12:35:38.344Z,2.84
2018-08-14T12:36:38.814Z,2.89
2018-08-14T12:37:39.286Z,2.92
2018-08-14T12:38:39.761Z,2.96
2018-08-14T12:39:40.229Z,2.99
2018-08-14T12:40:40.703Z,3.03
2018-08-14T12:41:41.171Z,3.06
2018-08-14T12:42:41.649Z,3.12
2018-08-14T12:43:42.116Z,3.24
2018-08-14T12:44:42.587Z,3.34
2018-08-14T12:45:43.059Z,3.40
2018-08-14T12:46:43.535Z,3.50
2018-08-14T12:47:44.006Z,3.46
2018-08-14T12:48:44.477Z,3.38
2018-08-14T12:49:44.991Z,3.40
2018-08-14T12:50:45.424Z,3.36
2018-08-14T12:51:45.899Z,3.35
2018-08-14T12:52:46.372Z,3.40
2018-08-14T12:53:46.844Z,3.41
2018-08-14T12:54:47.318Z,3.44
2018-08-14T12:55:47.873Z,3.58
2018-08-14T12:56:48.269Z,3.53
2018-08-14T12:57:48.740Z,3.40
2018-08-14T12:58:49.217Z,3.16
2018-08-14T12:59:49.691Z,3.10
2018-08-14T13:00:50.167Z,3.14
2018-08-14T13:01:50.646Z,3.06
2018-08-14T13:02:51.116Z,2.86
2018-08-14T13:03:51.591Z,2.88
2018-08-14T13:04:52.065Z,2.98
2018-08-14T13:05:52.538Z,2.91
2018-08-14T13:06:53.016Z,2.84
2018-08-14T13:07:53.489Z,2.85
2018-08-14T13:08:54.018Z,2.86
2018-08-14T13:09:54.438Z,2.93
2018-08-14T13:10:54.917Z,2.84
2018-08-14T13:11:55.389Z,2.82
2018-08-14T13:12:55.861Z,2.72
2018-08-14T13:13:56.341Z,2.72
2018-08-14T13:14:56.819Z,2.73
2018-08-14T13:15:57.286Z,2.80
2018-08-14T13:16:57.759Z,2.85
2018-08-14T13:17:58.237Z,2.88
2018-08-14T13:18:58.707Z,2.90
2018-08-14T13:19:59.182Z,2.84
2018-08-14T13:20:59.654Z,2.72
2018-08-14T13:22:00.127Z,2.67
2018-08-14T13:23:00.611Z,2.76
2018-08-14T13:24:01.075Z,2.86
2018-08-14T13:25:01.548Z,2.86